Αναφορές Αεροδρομίων

 

LGTS - Thessaloniki/Mik, Greece
Distance from station: ΝΔ 15km
Ενημερώθηκε: 23/03/2019 18:50
Αίθριος
Αίθριος
 Ανεμος από ΑΝΑ
Ανεμος: ΑΝΑ 9 km/h
Θερμοκρασία: 16°C
Σημείο Δρόσου: 3°C
Υγρασία: 42%
Βαρόμετρο: 1019 hPa
Περίληψη: Αίθριος
Visibility: greater than 10 km
2019/03/23 16:50 LGTS 231650Z 12005KT CAVOK 16/03 Q1019 NOSIG
LGKZ - Kozani (civ/Army, Greece
Distance from station: ΔΝΔ 113km
Ενημερώθηκε: 23/03/2019 13:50
NOT Current
Λίγα Σύννεφα
Λίγα Σύννεφα
 Ανεμος από ΝΑ
Ανεμος: ΝΑ 7 km/h
Θερμοκρασία: 16°C
Σημείο Δρόσου: 0°C
Υγρασία: 34%
Βαρόμετρο: 1022 hPa
Clouds: Λίγα Σύννεφα
Visibility: 10 km
Cloud details: Λίγα Σύννεφα 2134 m
2019/03/23 11:50 LGKZ 231150Z 14004KT 9999 FEW070 16/00 Q1022
 
LGKV - Kavala/Chrisoupo, Greece
Distance from station: ΑΒΑ 132km
Ενημερώθηκε: 23/03/2019 18:50
Λίγα Σύννεφα
Λίγα Σύννεφα
 Ανεμος από ΔΝΔ
Ανεμος: ΔΝΔ 6 km/h
Θερμοκρασία: 14°C
Σημείο Δρόσου: 8°C
Υγρασία: 67%
Βαρόμετρο: 1019 hPa
Clouds: Λίγα Σύννεφα
Visibility: 10 km
Cloud details: Λίγα Σύννεφα 914 m
2019/03/23 16:50 LGKV 231650Z 24003KT 9999 FEW030 14/08 Q1019
LGBL - Nea Anchialos, Greece
Distance from station: Ν 156km
Ενημερώθηκε: 23/03/2019 18:50
Αίθριος
Αίθριος
 Ανεμος από ΝΑ
Ανεμος: ΝΑ 11 km/h
Θερμοκρασία: 14°C
Σημείο Δρόσου: 4°C
Υγρασία: 51%
Βαρόμετρο: 1020 hPa
Περίληψη: Αίθριος
Visibility: greater than 10 km
2019/03/23 16:50 LGBL 231650Z 13006KT CAVOK 14/04 Q1020
 
LGSK - Skiathos Island, Greece
Distance from station: ΝΝΑ 161km
Ενημερώθηκε: 23/03/2019 14:50
NOT Current
Λίγα Σύννεφα
Λίγα Σύννεφα
 Ανεμος από Β
Ανεμος: Β 15 km/h
Θερμοκρασία: 17°C
Σημείο Δρόσου: 7°C
Υγρασία: 52%
Βαρόμετρο: 1021 hPa
Clouds: Λίγα Σύννεφα
Visibility: 10 km
Cloud details: Λίγα Σύννεφα 610 m
2019/03/23 12:50 LGSK 231250Z 36008KT 9999 FEW020 17/07 Q1021
LWSK - Skopje/Petrovac, Macedonia
Distance from station: ΒΔ 195km
Ενημερώθηκε: 23/03/2019 19:00
Αίθριος
Αίθριος
 Ανεμος από Β
Ανεμος: Β 15 km/h
Θερμοκρασία: 18°C
Σημείο Δρόσου: -1°C
Υγρασία: 28%
Βαρόμετρο: 1020 hPa
Περίληψη: Αίθριος
Visibility: greater than 10 km
2019/03/23 17:00 LWSK 231700Z 36008KT 330V040 CAVOK 18/M01 Q1020 NOSIG
 
LGLM - Limnos Island Ar, Greece
Distance from station: ΑΝΑ 196km
Ενημερώθηκε: 23/03/2019 18:50
Λίγα Σύννεφα
Λίγα Σύννεφα
 Ανεμος από Β
Ανεμος: Β 7 km/h
Θερμοκρασία: 14°C
Σημείο Δρόσου: 9°C
Υγρασία: 72%
Βαρόμετρο: 1019 hPa
Clouds: Λίγα Σύννεφα
Visibility: 10 km
Cloud details: Λίγα Σύννεφα 762 m
2019/03/23 16:50 LGLM 231650Z 35004KT 9999 FEW025 14/09 Q1019
LWOH - Ohrid, Macedonia
Distance from station: ΔΒΔ 202km
Ενημερώθηκε: 23/03/2019 19:00
Λίγα Σύννεφα
Λίγα Σύννεφα
 Ανεμος από ΒΑ
Ανεμος: ΒΑ 9 km/h
Θερμοκρασία: 15°C
Σημείο Δρόσου: -4°C
Υγρασία: 27%
Βαρόμετρο: 1020 hPa
Clouds: Λίγα Σύννεφα
Visibility: 10 km
Cloud details: Λίγα Σύννεφα 1524 m
2019/03/23 17:00 LWOH 231700Z 05005KT 9999 FEW050 15/M04 Q1020
 
LGSY - Skiros, Greece
Distance from station: ΝΑ 217km
Ενημερώθηκε: 23/03/2019 17:50
NOT Current
Λίγα Σύννεφα
Λίγα Σύννεφα
 Ανεμος από ΒΒΔ
Ανεμος: ΒΒΔ 22 km/h
Θερμοκρασία: 14°C
Σημείο Δρόσου: 7°C
Υγρασία: 63%
Βαρόμετρο: 1019 hPa
Clouds: Λίγα Σύννεφα
Visibility: 10 km
Cloud details: Λίγα Σύννεφα 762 m
2019/03/23 15:50 LGSY 231550Z 34012KT 9999 FEW025 14/07 Q1019 BLU
LGIO - Ioannina, Greece
Distance from station: ΔΝΔ 218km
Ενημερώθηκε: 23/03/2019 13:50
NOT Current
Αίθριος
Αίθριος
 Ανεμος από varies
Ανεμος: varies 0 km/h
Θερμοκρασία: 18°C
Σημείο Δρόσου: -1°C
Υγρασία: 28%
Βαρόμετρο: 1018 hPa
Περίληψη: Αίθριος
Visibility: greater than 10 km
2019/03/23 11:50 LGIO 231150Z /////KT CAVOK 18/M01 Q1018
 
LBPD - Plovdiv, Bulgaria
Distance from station: ΒΑ 222km
Ενημερώθηκε: 23/03/2019 19:00
Αίθριος
Αίθριος
 Ανεμος από Α
Ανεμος: Α 13 km/h
Θερμοκρασία: 15°C
Σημείο Δρόσου: 3°C
Υγρασία: 45%
Βαρόμετρο: 1019 hPa
Clouds: Αίθριος
Visibility: 10 km
2019/03/23 17:00 LBPD 231700Z AUTO 10007KT 9999 NCD 15/03 Q1019 NOSIG
LBSF - Sofia (observato, Bulgaria
Distance from station: Β 229km
Ενημερώθηκε: 23/03/2019 19:00
Αίθριος
Αίθριος
 Ανεμος από ΒΑ
Ανεμος: ΒΑ 7 km/h
Θερμοκρασία: 14°C
Σημείο Δρόσου: -3°C
Υγρασία: 31%
Βαρόμετρο: 1021 hPa
Περίληψη: Αίθριος
Visibility: greater than 10 km
2019/03/23 17:00 LBSF 231700Z 05004KT CAVOK 14/M03 Q1021 NOSIG
 
LGAL - Alexandroupolis, Greece
Distance from station: Α 242km
Ενημερώθηκε: 23/03/2019 18:50
Λίγα Σύννεφα
Λίγα Σύννεφα
 Ανεμος από Α
Ανεμος: Α 13 km/h
Θερμοκρασία: 14°C
Σημείο Δρόσου: 5°C
Υγρασία: 55%
Βαρόμετρο: 1019 hPa
Clouds: Λίγα Σύννεφα
Visibility: 10 km
Cloud details: Λίγα Σύννεφα 914 m
2019/03/23 16:50 LGAL 231650Z 09007KT 9999 FEW030 14/05 Q1019
LGPZ - Preveza/Aktion, Greece
Distance from station: ΝΔ 274km
Ενημερώθηκε: 23/03/2019 18:50
Αίθριος
Αίθριος
 Ανεμος από varies
Ανεμος: varies 6 km/h
Θερμοκρασία: 16°C
Σημείο Δρόσου: 8°C
Υγρασία: 59%
Βαρόμετρο: 1020 hPa
Περίληψη: Αίθριος
Visibility: greater than 10 km
2019/03/23 16:50 LGPZ 231650Z VRB03KT CAVOK 16/08 Q1020
 
BKPR - Prishtina, Yugoslavia
Distance from station: ΒΔ 280km
Ενημερώθηκε: 23/03/2019 19:00
Αίθριος
Αίθριος
 Ανεμος από ΒΒΑ
Ανεμος: ΒΒΑ 19 km/h
Θερμοκρασία: 14°C
Σημείο Δρόσου: 1°C
Υγρασία: 41%
Βαρόμετρο: 1022 hPa
Περίληψη: Αίθριος
Visibility: greater than 10 km
2019/03/23 17:00 BKPR 231700Z 03010KT CAVOK 14/01 Q1022 NOSIG RMK 17010095
LGEL - Elefsis (hel-Afb, Greece
Distance from station: Ν 284km
Ενημερώθηκε: 23/03/2019 18:50
Λίγα Σύννεφα
Λίγα Σύννεφα
 Ανεμος από ΒΔ
Ανεμος: ΒΔ 13 km/h
Θερμοκρασία: 15°C
Σημείο Δρόσου: 4°C
Υγρασία: 48%
Βαρόμετρο: 1017 hPa
Clouds: Λίγα Σύννεφα
Visibility: 10 km
Cloud details: Λίγα Σύννεφα 762 m
2019/03/23 16:50 LGEL 231650Z 32007KT 9999 FEW025 15/04 Q1017
 
LATI - Tirana, Albania
Distance from station: ΔΒΔ 291km
Ενημερώθηκε: 23/03/2019 19:20
Αίθριος
Αίθριος
 Ανεμος από ΝΝΑ
Ανεμος: ΝΝΑ 7 km/h
Θερμοκρασία: 17°C
Σημείο Δρόσου: 7°C
Υγρασία: 52%
Βαρόμετρο: 1018 hPa
Περίληψη: Αίθριος
Visibility: greater than 10 km
2019/03/23 17:20 LATI 231720Z 15004KT CAVOK 17/07 Q1018 NOSIG
LGKR - Ioannis Kapodist, Greece
Distance from station: ΔΝΔ 292km
Ενημερώθηκε: 23/03/2019 18:50
Αίθριος
Αίθριος
 Ανεμος από ΔΝΔ
Ανεμος: ΔΝΔ 11 km/h
Θερμοκρασία: 20°C
Σημείο Δρόσου: 9°C
Υγρασία: 49%
Βαρόμετρο: 1017 hPa
Περίληψη: Αίθριος
Visibility: greater than 10 km
2019/03/23 16:50 LGKR 231650Z 25006KT CAVOK 20/09 Q1017 NOSIG